sensor_id;sensor_type;location;lat;lon;timestamp;P1;durP1;ratioP1;P2;durP2;ratioP2
17935;SDS011;9093;52.062;4.508;2022-11-20T00:00:15;6.45;;;3.50;;
17935;SDS011;9093;52.062;4.508;2022-11-20T00:02:56;5.97;;;3.95;;
17935;SDS011;9093;52.062;4.508;2022-11-20T00:05:37;11.65;;;4.00;;
17935;SDS011;9093;52.062;4.508;2022-11-20T00:08:17;5.82;;;3.25;;
17935;SDS011;9093;52.062;4.508;2022-11-20T00:10:57;4.30;;;2.15;;
17935;SDS011;9093;52.062;4.508;2022-11-20T00:13:46;3.30;;;2.45;;
17935;SDS011;9093;52.062;4.508;2022-11-20T00:16:27;5.20;;;3.00;;
17935;SDS011;9093;52.062;4.508;2022-11-20T00:19:10;7.00;;;4.28;;
17935;SDS011;9093;52.062;4.508;2022-11-20T00:21:51;9.02;;;5.60;;
17935;SDS011;9093;52.062;4.508;2022-11-20T00:24:33;8.63;;;3.85;;
17935;SDS011;9093;52.062;4.508;2022-11-20T00:27:13;7.43;;;4.43;;
17935;SDS011;9093;52.062;4.508;2022-11-20T00:29:54;6.35;;;4.30;;
17935;SDS011;9093;52.062;4.508;2022-11-20T00:32:34;6.10;;;3.42;;
17935;SDS011;9093;52.062;4.508;2022-11-20T00:35:14;9.45;;;3.63;;
17935;SDS011;9093;52.062;4.508;2022-11-20T00:37:55;7.03;;;3.78;;
17935;SDS011;9093;52.062;4.508;2022-11-20T00:40:35;7.97;;;3.83;;
17935;SDS011;9093;52.062;4.508;2022-11-20T00:43:15;5.30;;;3.45;;
17935;SDS011;9093;52.062;4.508;2022-11-20T00:45:56;3.30;;;3.00;;
17935;SDS011;9093;52.062;4.508;2022-11-20T00:49:00;4.15;;;2.50;;
17935;SDS011;9093;52.062;4.508;2022-11-20T00:51:40;5.15;;;3.63;;
17935;SDS011;9093;52.062;4.508;2022-11-20T00:54:20;12.73;;;4.43;;
17935;SDS011;9093;52.062;4.508;2022-11-20T00:57:01;10.10;;;4.07;;
17935;SDS011;9093;52.062;4.508;2022-11-20T00:59:41;8.88;;;4.07;;
17935;SDS011;9093;52.062;4.508;2022-11-20T01:02:21;18.65;;;2.35;;
17935;SDS011;9093;52.062;4.508;2022-11-20T01:05:02;33.38;;;3.78;;
17935;SDS011;9093;52.062;4.508;2022-11-20T01:07:43;10.88;;;3.28;;
17935;SDS011;9093;52.062;4.508;2022-11-20T01:10:23;10.55;;;3.88;;
17935;SDS011;9093;52.062;4.508;2022-11-20T01:13:03;11.15;;;3.67;;
17935;SDS011;9093;52.062;4.508;2022-11-20T01:16:59;6.85;;;3.40;;
17935;SDS011;9093;52.062;4.508;2022-11-20T01:19:39;10.00;;;3.80;;
17935;SDS011;9093;52.062;4.508;2022-11-20T01:22:19;7.75;;;3.85;;
17935;SDS011;9093;52.062;4.508;2022-11-20T01:25:00;5.88;;;3.58;;
17935;SDS011;9093;52.062;4.508;2022-11-20T01:27:40;7.10;;;4.22;;
17935;SDS011;9093;52.062;4.508;2022-11-20T01:30:20;5.15;;;2.97;;
17935;SDS011;9093;52.062;4.508;2022-11-20T01:33:01;5.82;;;3.92;;
17935;SDS011;9093;52.062;4.508;2022-11-20T01:35:41;11.00;;;3.50;;
17935;SDS011;9093;52.062;4.508;2022-11-20T01:38:21;5.45;;;3.25;;
17935;SDS011;9093;52.062;4.508;2022-11-20T01:41:02;11.40;;;4.82;;
17935;SDS011;9093;52.062;4.508;2022-11-20T01:43:43;9.10;;;3.72;;
17935;SDS011;9093;52.062;4.508;2022-11-20T01:46:23;4.32;;;3.10;;
17935;SDS011;9093;52.062;4.508;2022-11-20T01:49:08;5.93;;;4.05;;
17935;SDS011;9093;52.062;4.508;2022-11-20T01:51:50;8.80;;;2.47;;
17935;SDS011;9093;52.062;4.508;2022-11-20T01:54:36;4.13;;;2.47;;
17935;SDS011;9093;52.062;4.508;2022-11-20T01:57:20;8.18;;;2.53;;
17935;SDS011;9093;52.062;4.508;2022-11-20T02:00:06;10.65;;;3.65;;
17935;SDS011;9093;52.062;4.508;2022-11-20T02:02:53;4.28;;;2.55;;
17935;SDS011;9093;52.062;4.508;2022-11-20T02:05:38;6.32;;;3.05;;
17935;SDS011;9093;52.062;4.508;2022-11-20T02:08:25;3.58;;;2.95;;
17935;SDS011;9093;52.062;4.508;2022-11-20T02:11:05;7.47;;;2.83;;
17935;SDS011;9093;52.062;4.508;2022-11-20T02:13:45;6.28;;;3.25;;
17935;SDS011;9093;52.062;4.508;2022-11-20T02:16:45;6.88;;;4.18;;
17935;SDS011;9093;52.062;4.508;2022-11-20T02:19:28;9.75;;;3.85;;
17935;SDS011;9093;52.062;4.508;2022-11-20T02:22:13;5.72;;;3.95;;
17935;SDS011;9093;52.062;4.508;2022-11-20T02:24:59;5.18;;;3.47;;
17935;SDS011;9093;52.062;4.508;2022-11-20T02:27:42;5.85;;;3.65;;
17935;SDS011;9093;52.062;4.508;2022-11-20T02:30:22;2.65;;;2.40;;
17935;SDS011;9093;52.062;4.508;2022-11-20T02:33:03;3.92;;;2.67;;
17935;SDS011;9093;52.062;4.508;2022-11-20T02:35:44;3.97;;;3.40;;
17935;SDS011;9093;52.062;4.508;2022-11-20T02:38:26;3.35;;;1.92;;
17935;SDS011;9093;52.062;4.508;2022-11-20T02:41:06;5.75;;;3.45;;
17935;SDS011;9093;52.062;4.508;2022-11-20T02:43:47;5.40;;;4.15;;
17935;SDS011;9093;52.062;4.508;2022-11-20T02:46:27;7.95;;;3.60;;
17935;SDS011;9093;52.062;4.508;2022-11-20T02:49:07;11.65;;;3.28;;
17935;SDS011;9093;52.062;4.508;2022-11-20T02:51:48;5.15;;;3.78;;
17935;SDS011;9093;52.062;4.508;2022-11-20T02:54:28;6.40;;;3.50;;
17935;SDS011;9093;52.062;4.508;2022-11-20T02:57:08;8.65;;;3.40;;
17935;SDS011;9093;52.062;4.508;2022-11-20T02:59:49;2.97;;;2.33;;
17935;SDS011;9093;52.062;4.508;2022-11-20T03:02:29;4.05;;;3.22;;
17935;SDS011;9093;52.062;4.508;2022-11-20T03:05:10;4.25;;;3.03;;
17935;SDS011;9093;52.062;4.508;2022-11-20T03:07:51;5.68;;;3.70;;
17935;SDS011;9093;52.062;4.508;2022-11-20T03:10:31;3.33;;;3.03;;
17935;SDS011;9093;52.062;4.508;2022-11-20T03:13:11;5.90;;;3.80;;
17935;SDS011;9093;52.062;4.508;2022-11-20T03:15:51;6.47;;;2.55;;
17935;SDS011;9093;52.062;4.508;2022-11-20T03:18:32;5.63;;;2.92;;
17935;SDS011;9093;52.062;4.508;2022-11-20T03:21:12;8.23;;;4.30;;
17935;SDS011;9093;52.062;4.508;2022-11-20T03:23:54;6.85;;;3.47;;
17935;SDS011;9093;52.062;4.508;2022-11-20T03:26:34;5.53;;;3.10;;
17935;SDS011;9093;52.062;4.508;2022-11-20T03:29:15;7.18;;;3.22;;
17935;SDS011;9093;52.062;4.508;2022-11-20T03:31:55;9.57;;;3.20;;
17935;SDS011;9093;52.062;4.508;2022-11-20T03:34:35;8.27;;;4.40;;
17935;SDS011;9093;52.062;4.508;2022-11-20T03:37:16;11.20;;;4.00;;
17935;SDS011;9093;52.062;4.508;2022-11-20T03:39:56;12.77;;;2.33;;
17935;SDS011;9093;52.062;4.508;2022-11-20T03:42:36;5.13;;;3.63;;
17935;SDS011;9093;52.062;4.508;2022-11-20T03:45:26;3.67;;;2.92;;
17935;SDS011;9093;52.062;4.508;2022-11-20T03:48:06;5.05;;;3.30;;
17935;SDS011;9093;52.062;4.508;2022-11-20T03:50:46;7.75;;;3.22;;
17935;SDS011;9093;52.062;4.508;2022-11-20T03:53:27;5.63;;;2.80;;
17935;SDS011;9093;52.062;4.508;2022-11-20T03:56:08;11.15;;;4.00;;
17935;SDS011;9093;52.062;4.508;2022-11-20T03:58:49;5.53;;;3.97;;
17935;SDS011;9093;52.062;4.508;2022-11-20T04:01:31;3.20;;;2.63;;
17935;SDS011;9093;52.062;4.508;2022-11-20T04:04:17;4.88;;;3.58;;
17935;SDS011;9093;52.062;4.508;2022-11-20T04:06:57;9.98;;;3.10;;
17935;SDS011;9093;52.062;4.508;2022-11-20T04:09:37;8.50;;;3.50;;
17935;SDS011;9093;52.062;4.508;2022-11-20T04:12:17;4.55;;;3.33;;
17935;SDS011;9093;52.062;4.508;2022-11-20T04:14:58;8.48;;;2.72;;
17935;SDS011;9093;52.062;4.508;2022-11-20T04:17:38;5.57;;;2.72;;
17935;SDS011;9093;52.062;4.508;2022-11-20T04:20:18;5.35;;;4.13;;
17935;SDS011;9093;52.062;4.508;2022-11-20T04:22:59;6.80;;;4.05;;
17935;SDS011;9093;52.062;4.508;2022-11-20T04:25:39;7.53;;;3.40;;
17935;SDS011;9093;52.062;4.508;2022-11-20T04:28:20;3.10;;;2.42;;
17935;SDS011;9093;52.062;4.508;2022-11-20T04:33:46;3.92;;;3.28;;
17935;SDS011;9093;52.062;4.508;2022-11-20T04:36:27;7.28;;;4.35;;
17935;SDS011;9093;52.062;4.508;2022-11-20T04:39:11;4.83;;;3.63;;
17935;SDS011;9093;52.062;4.508;2022-11-20T04:41:53;4.75;;;2.97;;
17935;SDS011;9093;52.062;4.508;2022-11-20T04:44:53;5.40;;;2.22;;
17935;SDS011;9093;52.062;4.508;2022-11-20T04:47:33;5.78;;;2.38;;
17935;SDS011;9093;52.062;4.508;2022-11-20T04:50:13;7.47;;;2.70;;
17935;SDS011;9093;52.062;4.508;2022-11-20T04:52:54;8.10;;;3.65;;
17935;SDS011;9093;52.062;4.508;2022-11-20T04:55:34;12.15;;;4.38;;
17935;SDS011;9093;52.062;4.508;2022-11-20T04:58:14;7.15;;;3.90;;
17935;SDS011;9093;52.062;4.508;2022-11-20T05:01:03;9.77;;;4.47;;
17935;SDS011;9093;52.062;4.508;2022-11-20T05:03:49;9.95;;;5.57;;
17935;SDS011;9093;52.062;4.508;2022-11-20T05:06:30;4.88;;;3.28;;
17935;SDS011;9093;52.062;4.508;2022-11-20T05:09:10;5.95;;;3.90;;
17935;SDS011;9093;52.062;4.508;2022-11-20T05:11:51;6.38;;;3.63;;
17935;SDS011;9093;52.062;4.508;2022-11-20T05:14:31;3.72;;;3.38;;
17935;SDS011;9093;52.062;4.508;2022-11-20T05:17:12;8.48;;;2.88;;
17935;SDS011;9093;52.062;4.508;2022-11-20T05:19:52;2.53;;;1.95;;
17935;SDS011;9093;52.062;4.508;2022-11-20T05:22:32;5.47;;;3.67;;
17935;SDS011;9093;52.062;4.508;2022-11-20T05:25:13;2.83;;;2.58;;
17935;SDS011;9093;52.062;4.508;2022-11-20T05:27:53;4.72;;;2.65;;
17935;SDS011;9093;52.062;4.508;2022-11-20T05:30:33;6.47;;;3.53;;
17935;SDS011;9093;52.062;4.508;2022-11-20T05:33:14;2.97;;;2.47;;
17935;SDS011;9093;52.062;4.508;2022-11-20T05:35:57;21.13;;;3.22;;
17935;SDS011;9093;52.062;4.508;2022-11-20T05:38:38;7.60;;;3.25;;
17935;SDS011;9093;52.062;4.508;2022-11-20T05:41:20;8.88;;;3.00;;
17935;SDS011;9093;52.062;4.508;2022-11-20T05:44:00;5.18;;;3.13;;
17935;SDS011;9093;52.062;4.508;2022-11-20T05:46:40;6.80;;;4.10;;
17935;SDS011;9093;52.062;4.508;2022-11-20T05:49:21;4.95;;;3.25;;
17935;SDS011;9093;52.062;4.508;2022-11-20T05:52:01;4.65;;;2.35;;
17935;SDS011;9093;52.062;4.508;2022-11-20T05:54:41;3.45;;;2.97;;
17935;SDS011;9093;52.062;4.508;2022-11-20T05:57:21;7.97;;;4.53;;
17935;SDS011;9093;52.062;4.508;2022-11-20T06:00:02;5.22;;;3.00;;
17935;SDS011;9093;52.062;4.508;2022-11-20T06:02:43;8.43;;;3.30;;
17935;SDS011;9093;52.062;4.508;2022-11-20T06:05:24;5.25;;;4.00;;
17935;SDS011;9093;52.062;4.508;2022-11-20T06:08:04;8.43;;;3.75;;
17935;SDS011;9093;52.062;4.508;2022-11-20T06:10:44;6.68;;;3.78;;
17935;SDS011;9093;52.062;4.508;2022-11-20T06:13:24;5.97;;;4.10;;
17935;SDS011;9093;52.062;4.508;2022-11-20T06:16:05;4.13;;;2.70;;
17935;SDS011;9093;52.062;4.508;2022-11-20T06:18:45;4.13;;;2.55;;
17935;SDS011;9093;52.062;4.508;2022-11-20T06:21:26;9.23;;;4.07;;
17935;SDS011;9093;52.062;4.508;2022-11-20T06:24:06;5.65;;;2.70;;
17935;SDS011;9093;52.062;4.508;2022-11-20T06:26:49;4.38;;;3.22;;
17935;SDS011;9093;52.062;4.508;2022-11-20T06:29:30;4.90;;;2.80;;
17935;SDS011;9093;52.062;4.508;2022-11-20T06:32:10;4.10;;;3.03;;
17935;SDS011;9093;52.062;4.508;2022-11-20T06:34:50;8.98;;;4.05;;
17935;SDS011;9093;52.062;4.508;2022-11-20T06:37:30;8.70;;;4.22;;
17935;SDS011;9093;52.062;4.508;2022-11-20T06:40:11;4.97;;;2.78;;
17935;SDS011;9093;52.062;4.508;2022-11-20T06:42:53;9.15;;;3.90;;
17935;SDS011;9093;52.062;4.508;2022-11-20T06:45:33;1.88;;;1.77;;
17935;SDS011;9093;52.062;4.508;2022-11-20T06:48:14;6.57;;;2.83;;
17935;SDS011;9093;52.062;4.508;2022-11-20T06:50:54;5.35;;;3.53;;
17935;SDS011;9093;52.062;4.508;2022-11-20T06:53:35;6.65;;;3.60;;
17935;SDS011;9093;52.062;4.508;2022-11-20T06:56:16;4.15;;;3.15;;
17935;SDS011;9093;52.062;4.508;2022-11-20T06:58:56;5.22;;;3.53;;
17935;SDS011;9093;52.062;4.508;2022-11-20T07:01:36;4.60;;;3.55;;
17935;SDS011;9093;52.062;4.508;2022-11-20T07:04:17;7.75;;;4.13;;
17935;SDS011;9093;52.062;4.508;2022-11-20T07:06:57;6.57;;;4.47;;
17935;SDS011;9093;52.062;4.508;2022-11-20T07:09:37;8.57;;;2.63;;
17935;SDS011;9093;52.062;4.508;2022-11-20T07:12:17;10.02;;;3.60;;
17935;SDS011;9093;52.062;4.508;2022-11-20T07:14:58;12.57;;;4.18;;
17935;SDS011;9093;52.062;4.508;2022-11-20T07:17:38;4.82;;;3.42;;
17935;SDS011;9093;52.062;4.508;2022-11-20T07:20:18;6.90;;;3.58;;
17935;SDS011;9093;52.062;4.508;2022-11-20T07:22:59;9.75;;;4.57;;
17935;SDS011;9093;52.062;4.508;2022-11-20T07:25:39;11.10;;;4.35;;
17935;SDS011;9093;52.062;4.508;2022-11-20T07:28:19;11.38;;;4.97;;
17935;SDS011;9093;52.062;4.508;2022-11-20T07:30:59;6.63;;;4.05;;
17935;SDS011;9093;52.062;4.508;2022-11-20T07:33:40;3.60;;;2.53;;
17935;SDS011;9093;52.062;4.508;2022-11-20T07:36:20;8.90;;;4.30;;
17935;SDS011;9093;52.062;4.508;2022-11-20T07:39:00;5.65;;;4.07;;
17935;SDS011;9093;52.062;4.508;2022-11-20T07:41:41;10.13;;;4.78;;
17935;SDS011;9093;52.062;4.508;2022-11-20T07:44:21;3.33;;;2.72;;
17935;SDS011;9093;52.062;4.508;2022-11-20T07:47:01;9.15;;;3.22;;
17935;SDS011;9093;52.062;4.508;2022-11-20T07:49:42;5.43;;;3.15;;
17935;SDS011;9093;52.062;4.508;2022-11-20T07:52:22;9.60;;;3.78;;
17935;SDS011;9093;52.062;4.508;2022-11-20T07:55:02;4.00;;;3.03;;
17935;SDS011;9093;52.062;4.508;2022-11-20T07:57:43;7.57;;;4.60;;
17935;SDS011;9093;52.062;4.508;2022-11-20T08:00:23;7.18;;;4.28;;
17935;SDS011;9093;52.062;4.508;2022-11-20T08:03:04;5.95;;;4.50;;
17935;SDS011;9093;52.062;4.508;2022-11-20T08:05:45;5.07;;;3.53;;
17935;SDS011;9093;52.062;4.508;2022-11-20T08:08:25;7.78;;;5.55;;
17935;SDS011;9093;52.062;4.508;2022-11-20T08:11:06;10.13;;;5.88;;
17935;SDS011;9093;52.062;4.508;2022-11-20T08:14:05;11.55;;;4.90;;
17935;SDS011;9093;52.062;4.508;2022-11-20T08:16:51;5.60;;;4.47;;
17935;SDS011;9093;52.062;4.508;2022-11-20T08:19:31;8.82;;;4.85;;
17935;SDS011;9093;52.062;4.508;2022-11-20T08:22:12;13.73;;;5.35;;
17935;SDS011;9093;52.062;4.508;2022-11-20T08:24:53;15.88;;;5.97;;
17935;SDS011;9093;52.062;4.508;2022-11-20T08:27:33;9.07;;;4.30;;
17935;SDS011;9093;52.062;4.508;2022-11-20T08:30:13;9.93;;;4.43;;
17935;SDS011;9093;52.062;4.508;2022-11-20T08:32:54;7.75;;;4.68;;
17935;SDS011;9093;52.062;4.508;2022-11-20T08:35:35;10.93;;;5.22;;
17935;SDS011;9093;52.062;4.508;2022-11-20T08:38:16;8.47;;;4.57;;
17935;SDS011;9093;52.062;4.508;2022-11-20T08:40:57;11.40;;;4.78;;
17935;SDS011;9093;52.062;4.508;2022-11-20T08:43:58;9.65;;;5.45;;
17935;SDS011;9093;52.062;4.508;2022-11-20T08:46:40;8.32;;;4.97;;
17935;SDS011;9093;52.062;4.508;2022-11-20T08:49:21;13.55;;;5.35;;
17935;SDS011;9093;52.062;4.508;2022-11-20T08:52:02;7.22;;;4.35;;
17935;SDS011;9093;52.062;4.508;2022-11-20T08:54:42;7.63;;;4.65;;
17935;SDS011;9093;52.062;4.508;2022-11-20T08:57:22;7.28;;;4.68;;
17935;SDS011;9093;52.062;4.508;2022-11-20T09:00:04;6.28;;;3.78;;
17935;SDS011;9093;52.062;4.508;2022-11-20T09:02:45;14.80;;;6.40;;
17935;SDS011;9093;52.062;4.508;2022-11-20T09:05:26;12.40;;;5.28;;
17935;SDS011;9093;52.062;4.508;2022-11-20T09:08:06;8.10;;;3.88;;
17935;SDS011;9093;52.062;4.508;2022-11-20T09:10:50;10.75;;;5.07;;
17935;SDS011;9093;52.062;4.508;2022-11-20T09:13:32;6.20;;;3.63;;
17935;SDS011;9093;52.062;4.508;2022-11-20T09:16:14;8.80;;;4.00;;
17935;SDS011;9093;52.062;4.508;2022-11-20T09:18:54;6.22;;;3.53;;
17935;SDS011;9093;52.062;4.508;2022-11-20T09:21:34;10.70;;;5.65;;
17935;SDS011;9093;52.062;4.508;2022-11-20T09:24:14;8.77;;;5.07;;
17935;SDS011;9093;52.062;4.508;2022-11-20T09:26:55;10.23;;;5.05;;
17935;SDS011;9093;52.062;4.508;2022-11-20T09:29:35;11.70;;;5.93;;
17935;SDS011;9093;52.062;4.508;2022-11-20T09:32:15;14.90;;;6.70;;
17935;SDS011;9093;52.062;4.508;2022-11-20T09:34:55;17.95;;;6.50;;
17935;SDS011;9093;52.062;4.508;2022-11-20T09:37:36;14.27;;;6.85;;
17935;SDS011;9093;52.062;4.508;2022-11-20T09:40:20;8.70;;;4.97;;
17935;SDS011;9093;52.062;4.508;2022-11-20T09:46:07;14.48;;;6.47;;
17935;SDS011;9093;52.062;4.508;2022-11-20T09:55:12;12.00;;;5.60;;
17935;SDS011;9093;52.062;4.508;2022-11-20T09:57:54;22.65;;;4.07;;
17935;SDS011;9093;52.062;4.508;2022-11-20T10:00:36;12.98;;;5.93;;
17935;SDS011;9093;52.062;4.508;2022-11-20T10:03:19;9.95;;;5.75;;
17935;SDS011;9093;52.062;4.508;2022-11-20T10:06:10;17.70;;;6.70;;
17935;SDS011;9093;52.062;4.508;2022-11-20T10:09:13;8.88;;;4.93;;
17935;SDS011;9093;52.062;4.508;2022-11-20T10:24:06;12.60;;;5.75;;
17935;SDS011;9093;52.062;4.508;2022-11-20T10:30:00;16.40;;;5.43;;
17935;SDS011;9093;52.062;4.508;2022-11-20T10:32:48;10.25;;;6.15;;
17935;SDS011;9093;52.062;4.508;2022-11-20T10:35:34;18.98;;;7.65;;
17935;SDS011;9093;52.062;4.508;2022-11-20T10:41:03;10.90;;;5.05;;
17935;SDS011;9093;52.062;4.508;2022-11-20T10:44:05;13.90;;;7.18;;
17935;SDS011;9093;52.062;4.508;2022-11-20T10:46:52;16.35;;;6.50;;
17935;SDS011;9093;52.062;4.508;2022-11-20T10:49:32;13.57;;;6.40;;
17935;SDS011;9093;52.062;4.508;2022-11-20T10:58:37;13.52;;;7.07;;
17935;SDS011;9093;52.062;4.508;2022-11-20T11:01:28;10.18;;;6.00;;
17935;SDS011;9093;52.062;4.508;2022-11-20T11:04:23;14.57;;;6.90;;
17935;SDS011;9093;52.062;4.508;2022-11-20T11:10:00;12.15;;;6.30;;
17935;SDS011;9093;52.062;4.508;2022-11-20T11:12:43;16.10;;;7.03;;
17935;SDS011;9093;52.062;4.508;2022-11-20T11:18:10;19.02;;;8.35;;
17935;SDS011;9093;52.062;4.508;2022-11-20T11:20:51;9.80;;;6.22;;
17935;SDS011;9093;52.062;4.508;2022-11-20T11:23:34;33.10;;;8.30;;
17935;SDS011;9093;52.062;4.508;2022-11-20T11:26:20;12.30;;;7.63;;
17935;SDS011;9093;52.062;4.508;2022-11-20T11:29:03;19.83;;;8.90;;
17935;SDS011;9093;52.062;4.508;2022-11-20T11:31:44;19.25;;;8.43;;
17935;SDS011;9093;52.062;4.508;2022-11-20T11:34:24;23.85;;;7.43;;
17935;SDS011;9093;52.062;4.508;2022-11-20T11:37:04;15.70;;;7.55;;
17935;SDS011;9093;52.062;4.508;2022-11-20T11:39:54;17.60;;;9.00;;
17935;SDS011;9093;52.062;4.508;2022-11-20T11:42:35;17.08;;;8.88;;
17935;SDS011;9093;52.062;4.508;2022-11-20T11:45:21;13.18;;;8.20;;
17935;SDS011;9093;52.062;4.508;2022-11-20T11:48:02;13.63;;;7.53;;
17935;SDS011;9093;52.062;4.508;2022-11-20T11:50:49;14.27;;;8.00;;
17935;SDS011;9093;52.062;4.508;2022-11-20T11:53:30;19.45;;;7.90;;
17935;SDS011;9093;52.062;4.508;2022-11-20T11:56:12;13.85;;;6.35;;
17935;SDS011;9093;52.062;4.508;2022-11-20T11:58:54;15.05;;;8.20;;
17935;SDS011;9093;52.062;4.508;2022-11-20T12:01:42;11.57;;;6.90;;
17935;SDS011;9093;52.062;4.508;2022-11-20T12:04:40;19.17;;;7.70;;
17935;SDS011;9093;52.062;4.508;2022-11-20T12:10:34;17.88;;;8.90;;
17935;SDS011;9093;52.062;4.508;2022-11-20T12:16:14;25.25;;;9.35;;
17935;SDS011;9093;52.062;4.508;2022-11-20T12:18:57;12.55;;;8.43;;
17935;SDS011;9093;52.062;4.508;2022-11-20T12:25:03;11.73;;;6.70;;
17935;SDS011;9093;52.062;4.508;2022-11-20T12:30:59;16.20;;;7.88;;
17935;SDS011;9093;52.062;4.508;2022-11-20T12:37:41;20.52;;;9.05;;
17935;SDS011;9093;52.062;4.508;2022-11-20T12:40:52;17.13;;;8.13;;
17935;SDS011;9093;52.062;4.508;2022-11-20T12:43:57;21.85;;;10.60;;
17935;SDS011;9093;52.062;4.508;2022-11-20T12:50:32;17.02;;;8.13;;
17935;SDS011;9093;52.062;4.508;2022-11-20T13:02:27;15.95;;;8.75;;
17935;SDS011;9093;52.062;4.508;2022-11-20T13:08:24;19.58;;;9.75;;
17935;SDS011;9093;52.062;4.508;2022-11-20T13:11:15;19.38;;;7.57;;
17935;SDS011;9093;52.062;4.508;2022-11-20T13:19:38;21.55;;;9.32;;
17935;SDS011;9093;52.062;4.508;2022-11-20T13:22:29;18.02;;;7.85;;
17935;SDS011;9093;52.062;4.508;2022-11-20T13:25:24;18.27;;;7.75;;
17935;SDS011;9093;52.062;4.508;2022-11-20T13:30:52;16.20;;;8.00;;
17935;SDS011;9093;52.062;4.508;2022-11-20T13:33:34;23.33;;;9.52;;
17935;SDS011;9093;52.062;4.508;2022-11-20T13:36:24;28.02;;;10.15;;
17935;SDS011;9093;52.062;4.508;2022-11-20T13:39:08;18.65;;;9.10;;
17935;SDS011;9093;52.062;4.508;2022-11-20T13:41:53;19.85;;;9.45;;
17935;SDS011;9093;52.062;4.508;2022-11-20T13:44:39;27.08;;;9.20;;
17935;SDS011;9093;52.062;4.508;2022-11-20T13:47:25;23.70;;;9.25;;
17935;SDS011;9093;52.062;4.508;2022-11-20T13:50:08;16.08;;;7.93;;
17935;SDS011;9093;52.062;4.508;2022-11-20T13:55:54;27.92;;;10.27;;
17935;SDS011;9093;52.062;4.508;2022-11-20T14:01:45;21.50;;;10.27;;
17935;SDS011;9093;52.062;4.508;2022-11-20T14:04:27;19.50;;;8.75;;
17935;SDS011;9093;52.062;4.508;2022-11-20T14:07:10;18.05;;;9.35;;
17935;SDS011;9093;52.062;4.508;2022-11-20T14:09:52;23.20;;;9.80;;
17935;SDS011;9093;52.062;4.508;2022-11-20T14:12:36;17.60;;;9.23;;
17935;SDS011;9093;52.062;4.508;2022-11-20T14:15:30;45.10;;;9.60;;
17935;SDS011;9093;52.062;4.508;2022-11-20T14:18:19;26.60;;;9.05;;
17935;SDS011;9093;52.062;4.508;2022-11-20T14:21:01;37.05;;;10.77;;
17935;SDS011;9093;52.062;4.508;2022-11-20T14:23:43;28.52;;;9.77;;
17935;SDS011;9093;52.062;4.508;2022-11-20T14:26:23;27.50;;;10.93;;
17935;SDS011;9093;52.062;4.508;2022-11-20T14:29:04;27.20;;;9.77;;
17935;SDS011;9093;52.062;4.508;2022-11-20T14:31:45;19.00;;;9.27;;
17935;SDS011;9093;52.062;4.508;2022-11-20T14:37:12;22.45;;;8.90;;
17935;SDS011;9093;52.062;4.508;2022-11-20T14:39:57;21.55;;;11.23;;
17935;SDS011;9093;52.062;4.508;2022-11-20T14:42:42;25.50;;;8.80;;
17935;SDS011;9093;52.062;4.508;2022-11-20T14:45:24;22.90;;;8.88;;
17935;SDS011;9093;52.062;4.508;2022-11-20T14:48:05;36.20;;;11.82;;
17935;SDS011;9093;52.062;4.508;2022-11-20T14:50:46;27.38;;;10.00;;
17935;SDS011;9093;52.062;4.508;2022-11-20T14:53:26;21.65;;;9.15;;
17935;SDS011;9093;52.062;4.508;2022-11-20T14:56:07;24.52;;;11.30;;
17935;SDS011;9093;52.062;4.508;2022-11-20T14:58:55;22.67;;;9.73;;
17935;SDS011;9093;52.062;4.508;2022-11-20T15:01:36;53.70;;;13.10;;
17935;SDS011;9093;52.062;4.508;2022-11-20T15:04:17;23.75;;;10.23;;
17935;SDS011;9093;52.062;4.508;2022-11-20T15:06:58;26.08;;;10.18;;
17935;SDS011;9093;52.062;4.508;2022-11-20T15:09:39;20.63;;;9.27;;
17935;SDS011;9093;52.062;4.508;2022-11-20T15:12:19;23.17;;;8.82;;
17935;SDS011;9093;52.062;4.508;2022-11-20T15:15:00;17.13;;;8.50;;
17935;SDS011;9093;52.062;4.508;2022-11-20T15:17:41;34.95;;;11.18;;
17935;SDS011;9093;52.062;4.508;2022-11-20T15:20:21;27.52;;;10.40;;
17935;SDS011;9093;52.062;4.508;2022-11-20T15:23:09;25.08;;;10.10;;
17935;SDS011;9093;52.062;4.508;2022-11-20T15:25:51;25.42;;;10.45;;
17935;SDS011;9093;52.062;4.508;2022-11-20T15:28:33;26.15;;;10.13;;
17935;SDS011;9093;52.062;4.508;2022-11-20T15:31:21;18.17;;;8.93;;
17935;SDS011;9093;52.062;4.508;2022-11-20T15:34:03;25.67;;;9.63;;
17935;SDS011;9093;52.062;4.508;2022-11-20T15:36:46;24.40;;;8.98;;
17935;SDS011;9093;52.062;4.508;2022-11-20T15:39:26;20.58;;;9.57;;
17935;SDS011;9093;52.062;4.508;2022-11-20T15:42:07;22.05;;;8.90;;
17935;SDS011;9093;52.062;4.508;2022-11-20T15:44:47;24.50;;;7.93;;
17935;SDS011;9093;52.062;4.508;2022-11-20T15:47:28;16.50;;;8.10;;
17935;SDS011;9093;52.062;4.508;2022-11-20T15:50:11;13.73;;;7.18;;
17935;SDS011;9093;52.062;4.508;2022-11-20T15:52:57;19.05;;;8.43;;
17935;SDS011;9093;52.062;4.508;2022-11-20T15:55:37;26.83;;;9.90;;
17935;SDS011;9093;52.062;4.508;2022-11-20T15:58:17;25.52;;;9.93;;
17935;SDS011;9093;52.062;4.508;2022-11-20T16:00:57;16.45;;;8.40;;
17935;SDS011;9093;52.062;4.508;2022-11-20T16:03:38;19.48;;;10.07;;
17935;SDS011;9093;52.062;4.508;2022-11-20T16:06:18;18.50;;;9.30;;
17935;SDS011;9093;52.062;4.508;2022-11-20T16:08:58;20.77;;;10.05;;
17935;SDS011;9093;52.062;4.508;2022-11-20T16:11:39;16.80;;;8.65;;
17935;SDS011;9093;52.062;4.508;2022-11-20T16:14:19;19.80;;;9.05;;
17935;SDS011;9093;52.062;4.508;2022-11-20T16:17:18;16.55;;;8.82;;
17935;SDS011;9093;52.062;4.508;2022-11-20T16:20:18;15.93;;;8.13;;
17935;SDS011;9093;52.062;4.508;2022-11-20T16:22:59;18.42;;;9.20;;
17935;SDS011;9093;52.062;4.508;2022-11-20T16:25:39;17.52;;;8.32;;
17935;SDS011;9093;52.062;4.508;2022-11-20T16:28:19;18.95;;;9.00;;
17935;SDS011;9093;52.062;4.508;2022-11-20T16:31:07;16.27;;;7.45;;
17935;SDS011;9093;52.062;4.508;2022-11-20T16:33:52;17.15;;;8.85;;
17935;SDS011;9093;52.062;4.508;2022-11-20T16:36:34;21.52;;;8.38;;
17935;SDS011;9093;52.062;4.508;2022-11-20T16:39:14;16.55;;;7.82;;
17935;SDS011;9093;52.062;4.508;2022-11-20T16:41:54;15.20;;;8.02;;
17935;SDS011;9093;52.062;4.508;2022-11-20T16:44:35;17.25;;;7.88;;
17935;SDS011;9093;52.062;4.508;2022-11-20T16:47:15;19.85;;;9.95;;
17935;SDS011;9093;52.062;4.508;2022-11-20T16:49:55;24.88;;;8.18;;
17935;SDS011;9093;52.062;4.508;2022-11-20T16:52:35;16.08;;;8.10;;
17935;SDS011;9093;52.062;4.508;2022-11-20T16:55:16;18.73;;;7.32;;
17935;SDS011;9093;52.062;4.508;2022-11-20T16:57:56;18.52;;;9.05;;
17935;SDS011;9093;52.062;4.508;2022-11-20T17:00:37;12.05;;;7.20;;
17935;SDS011;9093;52.062;4.508;2022-11-20T17:03:18;23.00;;;9.10;;
17935;SDS011;9093;52.062;4.508;2022-11-20T17:05:59;12.82;;;7.18;;
17935;SDS011;9093;52.062;4.508;2022-11-20T17:08:40;31.67;;;9.45;;
17935;SDS011;9093;52.062;4.508;2022-11-20T17:11:20;15.52;;;5.70;;
17935;SDS011;9093;52.062;4.508;2022-11-20T17:14:01;17.27;;;8.50;;
17935;SDS011;9093;52.062;4.508;2022-11-20T17:16:42;15.27;;;7.95;;
17935;SDS011;9093;52.062;4.508;2022-11-20T17:19:24;13.00;;;6.13;;
17935;SDS011;9093;52.062;4.508;2022-11-20T17:22:04;15.38;;;7.57;;
17935;SDS011;9093;52.062;4.508;2022-11-20T17:24:44;19.75;;;7.28;;
17935;SDS011;9093;52.062;4.508;2022-11-20T17:27:24;13.18;;;6.57;;
17935;SDS011;9093;52.062;4.508;2022-11-20T17:30:05;15.25;;;7.20;;
17935;SDS011;9093;52.062;4.508;2022-11-20T17:32:46;20.08;;;7.47;;
17935;SDS011;9093;52.062;4.508;2022-11-20T17:35:27;17.67;;;7.38;;
17935;SDS011;9093;52.062;4.508;2022-11-20T17:38:07;16.05;;;6.85;;
17935;SDS011;9093;52.062;4.508;2022-11-20T17:40:47;17.45;;;8.80;;
17935;SDS011;9093;52.062;4.508;2022-11-20T17:43:28;13.00;;;7.30;;
17935;SDS011;9093;52.062;4.508;2022-11-20T17:48:50;11.17;;;5.30;;
17935;SDS011;9093;52.062;4.508;2022-11-20T17:51:31;13.48;;;7.75;;
17935;SDS011;9093;52.062;4.508;2022-11-20T17:54:13;17.90;;;7.40;;
17935;SDS011;9093;52.062;4.508;2022-11-20T17:56:54;13.25;;;6.60;;
17935;SDS011;9093;52.062;4.508;2022-11-20T17:59:52;14.68;;;6.25;;